createdAt,value
2018-09-15T00:01:11.154Z,8.27
2018-09-15T00:03:43.897Z,7.27
2018-09-15T00:06:16.292Z,7.90
2018-09-15T00:08:48.712Z,6.77
2018-09-15T00:11:21.497Z,7.77
2018-09-15T00:13:53.921Z,8.10
2018-09-15T00:16:26.646Z,8.33
2018-09-15T00:18:59.100Z,8.07
2018-09-15T00:21:31.517Z,7.43
2018-09-15T00:24:03.945Z,8.13
2018-09-15T00:26:36.358Z,8.80
2018-09-15T00:29:08.926Z,7.57
2018-09-15T00:31:42.030Z,7.50
2018-09-15T00:34:14.451Z,7.87
2018-09-15T00:36:46.885Z,7.90
2018-09-15T00:39:19.423Z,7.60
2018-09-15T00:41:51.896Z,6.77
2018-09-15T00:44:24.325Z,6.47
2018-09-15T00:46:56.763Z,6.93
2018-09-15T00:49:29.232Z,6.70
2018-09-15T00:52:01.616Z,6.23
2018-09-15T00:54:34.056Z,6.30
2018-09-15T00:57:06.430Z,6.63
2018-09-15T00:59:38.958Z,6.57
2018-09-15T01:02:11.318Z,6.37
2018-09-15T01:04:44.039Z,6.77
2018-09-15T01:07:16.427Z,6.57
2018-09-15T01:09:48.829Z,7.27
2018-09-15T01:12:21.261Z,7.47
2018-09-15T01:14:53.633Z,7.70
2018-09-15T01:17:26.169Z,6.97
2018-09-15T01:19:58.628Z,6.83
2018-09-15T01:22:31.042Z,6.30
2018-09-15T01:25:03.501Z,7.07
2018-09-15T01:27:35.994Z,6.27
2018-09-15T01:30:08.475Z,7.03
2018-09-15T01:32:40.978Z,7.00
2018-09-15T01:35:13.746Z,6.90
2018-09-15T01:37:46.513Z,6.33
2018-09-15T01:40:19.065Z,7.30
2018-09-15T01:42:51.759Z,6.73
2018-09-15T01:45:24.457Z,6.50
2018-09-15T01:47:57.121Z,6.30
2018-09-15T01:50:29.899Z,5.97
2018-09-15T01:53:02.751Z,6.50
2018-09-15T01:55:35.417Z,7.10
2018-09-15T01:58:08.272Z,6.33
2018-09-15T02:00:41.274Z,6.57
2018-09-15T02:03:14.148Z,7.53
2018-09-15T02:05:46.917Z,6.40
2018-09-15T02:08:19.722Z,6.37
2018-09-15T02:10:52.694Z,6.77
2018-09-15T02:13:25.220Z,6.23
2018-09-15T02:15:57.734Z,6.70
2018-09-15T02:18:30.162Z,6.90
2018-09-15T02:21:03.207Z,6.57
2018-09-15T02:23:35.835Z,5.93
2018-09-15T02:26:08.373Z,6.23
2018-09-15T02:28:40.862Z,6.93
2018-09-15T02:31:13.559Z,6.03
2018-09-15T02:33:46.594Z,6.20
2018-09-15T02:36:19.527Z,6.37
2018-09-15T02:38:52.392Z,6.37
2018-09-15T02:41:24.941Z,6.50
2018-09-15T02:43:58.045Z,6.77
2018-09-15T02:46:31.102Z,6.17
2018-09-15T02:49:03.784Z,7.07
2018-09-15T02:51:36.463Z,6.60
2018-09-15T02:54:09.362Z,6.50
2018-09-15T02:56:42.014Z,6.70
2018-09-15T02:59:14.803Z,6.83
2018-09-15T03:01:47.657Z,7.00
2018-09-15T03:04:20.076Z,7.17
2018-09-15T03:06:53.068Z,6.67
2018-09-15T03:09:25.653Z,6.60
2018-09-15T03:11:58.295Z,7.10
2018-09-15T03:14:31.202Z,6.17
2018-09-15T03:17:03.890Z,7.10
2018-09-15T03:19:36.568Z,6.10
2018-09-15T03:22:09.603Z,6.77
2018-09-15T03:24:42.070Z,6.13
2018-09-15T03:27:14.893Z,6.77
2018-09-15T03:29:48.032Z,6.57
2018-09-15T03:32:20.714Z,6.40
2018-09-15T03:34:54.521Z,6.57
2018-09-15T03:37:27.214Z,7.40
2018-09-15T03:40:00.087Z,7.50
2018-09-15T03:42:33.324Z,7.23
2018-09-15T03:45:06.174Z,6.97
2018-09-15T03:47:38.893Z,7.83
2018-09-15T03:50:11.602Z,7.63
2018-09-15T03:52:44.135Z,7.60
2018-09-15T03:55:16.681Z,6.87
2018-09-15T03:57:49.282Z,7.87
2018-09-15T04:00:21.723Z,7.87
2018-09-15T04:02:54.151Z,7.77
2018-09-15T04:05:26.571Z,7.60
2018-09-15T04:07:59.142Z,8.10
2018-09-15T04:10:31.564Z,8.07
2018-09-15T04:13:04.320Z,8.53
2018-09-15T04:15:36.823Z,8.77
2018-09-15T04:18:13.417Z,9.33
2018-09-15T04:20:47.919Z,9.20
2018-09-15T04:23:20.405Z,8.83
2018-09-15T04:25:52.821Z,10.33
2018-09-15T04:28:25.832Z,10.43
2018-09-15T04:30:58.318Z,9.90
2018-09-15T04:33:30.806Z,10.50
2018-09-15T04:36:03.323Z,10.40
2018-09-15T04:38:36.068Z,10.53
2018-09-15T04:41:08.753Z,10.23
2018-09-15T04:43:41.190Z,11.40
2018-09-15T04:46:13.569Z,11.73
2018-09-15T04:48:46.178Z,12.43
2018-09-15T04:51:18.583Z,12.50
2018-09-15T04:53:50.991Z,11.63
2018-09-15T04:56:23.576Z,11.63
2018-09-15T04:58:56.076Z,11.80
2018-09-15T05:01:28.462Z,11.40
2018-09-15T05:04:00.858Z,11.27
2018-09-15T05:06:33.666Z,12.23
2018-09-15T05:09:08.557Z,11.57
2018-09-15T05:11:41.463Z,12.93
2018-09-15T05:14:13.849Z,11.00
2018-09-15T05:16:46.306Z,11.73
2018-09-15T05:19:18.720Z,11.57
2018-09-15T05:21:51.122Z,11.70
2018-09-15T05:24:23.542Z,11.30
2018-09-15T05:26:55.999Z,11.33
2018-09-15T05:29:28.875Z,10.63
2018-09-15T05:32:01.705Z,10.37
2018-09-15T05:34:34.302Z,10.90
2018-09-15T05:37:06.788Z,10.43
2018-09-15T05:39:39.939Z,10.90
2018-09-15T05:42:12.655Z,10.57
2018-09-15T05:44:45.130Z,10.57
2018-09-15T05:47:17.869Z,10.13
2018-09-15T05:49:50.332Z,9.83
2018-09-15T05:52:22.841Z,10.13
2018-09-15T05:54:56.379Z,9.93
2018-09-15T05:57:31.387Z,9.33
2018-09-15T06:00:04.183Z,10.67
2018-09-15T06:02:36.646Z,10.20
2018-09-15T06:05:09.042Z,9.60
2018-09-15T06:07:41.500Z,9.10
2018-09-15T06:10:13.936Z,9.60
2018-09-15T06:12:46.363Z,8.87
2018-09-15T06:15:18.793Z,9.43
2018-09-15T06:17:52.342Z,9.13
2018-09-15T06:20:25.003Z,8.87
2018-09-15T06:22:57.554Z,9.50
2018-09-15T06:25:29.951Z,8.90
2018-09-15T06:28:02.479Z,9.93
2018-09-15T06:30:34.933Z,8.73
2018-09-15T06:33:07.382Z,9.13
2018-09-15T06:35:41.024Z,9.63
2018-09-15T06:38:13.493Z,10.03
2018-09-15T06:40:46.058Z,10.00
2018-09-15T06:43:18.495Z,10.20
2018-09-15T06:45:51.034Z,10.90
2018-09-15T06:48:23.414Z,9.60
2018-09-15T06:50:55.895Z,10.20
2018-09-15T06:53:28.382Z,10.60
2018-09-15T06:56:00.805Z,11.10
2018-09-15T06:58:33.269Z,10.97
2018-09-15T07:01:05.778Z,12.40
2018-09-15T07:03:38.561Z,11.80
2018-09-15T07:06:11.047Z,11.30
2018-09-15T07:08:43.466Z,11.13
2018-09-15T07:11:15.887Z,11.30
2018-09-15T07:13:48.409Z,10.90
2018-09-15T07:16:21.191Z,10.73
2018-09-15T07:18:53.678Z,10.97
2018-09-15T07:21:26.282Z,11.53
2018-09-15T07:23:58.932Z,11.00
2018-09-15T07:26:31.701Z,10.80
2018-09-15T07:29:04.133Z,9.40
2018-09-15T07:31:36.692Z,9.60
2018-09-15T07:34:09.126Z,9.40
2018-09-15T07:36:41.553Z,9.47
2018-09-15T07:39:14.455Z,8.93
2018-09-15T07:41:47.002Z,8.67
2018-09-15T07:44:19.437Z,6.93
2018-09-15T07:46:51.909Z,7.47
2018-09-15T07:49:24.326Z,6.80
2018-09-15T07:51:56.736Z,5.70
2018-09-15T07:54:29.185Z,6.33
2018-09-15T07:57:01.607Z,6.33
2018-09-15T07:59:34.199Z,6.37
2018-09-15T08:02:12.277Z,6.10
2018-09-15T08:04:44.743Z,6.00
2018-09-15T08:07:17.171Z,5.83
2018-09-15T08:09:49.579Z,6.60
2018-09-15T08:12:22.063Z,6.10
2018-09-15T08:14:54.628Z,5.73
2018-09-15T08:17:27.068Z,5.13
2018-09-15T08:19:59.882Z,5.57
2018-09-15T08:22:32.293Z,5.33
2018-09-15T08:25:04.767Z,5.00
2018-09-15T08:27:37.170Z,4.80
2018-09-15T08:30:09.598Z,4.40
2018-09-15T08:32:42.033Z,3.90
2018-09-15T08:35:14.476Z,3.53
2018-09-15T08:37:46.876Z,3.30
2018-09-15T08:40:19.463Z,2.93
2018-09-15T08:42:51.890Z,2.80
2018-09-15T08:45:24.367Z,3.40
2018-09-15T08:47:56.970Z,2.90
2018-09-15T08:50:29.365Z,2.93
2018-09-15T08:53:02.117Z,3.00
2018-09-15T08:55:34.513Z,3.17
2018-09-15T08:58:07.191Z,3.07
2018-09-15T09:00:39.732Z,3.30
2018-09-15T09:03:12.310Z,2.77
2018-09-15T09:05:44.721Z,3.87
2018-09-15T09:08:17.103Z,3.20
2018-09-15T09:10:49.729Z,2.97
2018-09-15T09:13:22.095Z,3.13
2018-09-15T09:15:54.492Z,3.23
2018-09-15T09:18:26.927Z,3.30
2018-09-15T09:21:00.925Z,3.17
2018-09-15T09:23:33.336Z,3.50
2018-09-15T09:26:05.834Z,3.17
2018-09-15T09:28:38.368Z,3.40
2018-09-15T09:31:10.760Z,3.03
2018-09-15T09:33:43.200Z,3.13
2018-09-15T09:36:15.597Z,2.63
2018-09-15T09:38:48.045Z,3.03
2018-09-15T09:41:20.469Z,2.60
2018-09-15T09:43:52.942Z,3.10
2018-09-15T09:46:25.646Z,2.70
2018-09-15T09:48:58.140Z,2.57
2018-09-15T09:51:31.811Z,2.40
2018-09-15T09:54:04.342Z,2.67
2018-09-15T09:56:36.917Z,2.67
2018-09-15T09:59:09.326Z,1.70
2018-09-15T10:01:47.483Z,2.00
2018-09-15T10:04:20.065Z,1.80
2018-09-15T10:06:52.611Z,2.00
2018-09-15T10:09:25.142Z,2.30
2018-09-15T10:11:58.515Z,1.80
2018-09-15T10:14:31.252Z,1.90
2018-09-15T10:17:04.521Z,1.70
2018-09-15T10:19:37.029Z,2.43
2018-09-15T10:22:09.596Z,2.40
2018-09-15T10:24:42.138Z,2.13
2018-09-15T10:27:14.605Z,2.00
2018-09-15T10:29:47.226Z,2.30
2018-09-15T10:32:19.777Z,2.33
2018-09-15T10:34:52.644Z,2.50
2018-09-15T10:37:25.339Z,2.17
2018-09-15T10:39:57.996Z,2.10
2018-09-15T10:42:30.480Z,2.27
2018-09-15T10:45:03.156Z,1.63
2018-09-15T10:47:35.579Z,1.80
2018-09-15T10:50:08.073Z,1.80
2018-09-15T10:52:40.537Z,1.93
2018-09-15T10:55:12.970Z,1.70
2018-09-15T10:57:45.414Z,2.10
2018-09-15T11:00:17.947Z,1.60
2018-09-15T11:02:50.473Z,1.93
2018-09-15T11:05:23.005Z,1.67
2018-09-15T11:07:57.284Z,1.53
2018-09-15T11:10:29.718Z,1.60
2018-09-15T11:13:02.301Z,1.70
2018-09-15T11:15:34.753Z,1.50
2018-09-15T11:18:07.198Z,1.50
2018-09-15T11:20:39.693Z,1.60
2018-09-15T11:23:12.198Z,1.40
2018-09-15T11:25:44.618Z,2.07
2018-09-15T11:28:17.126Z,1.57
2018-09-15T11:30:49.846Z,1.70
2018-09-15T11:33:22.342Z,1.47
2018-09-15T11:35:54.763Z,1.50
2018-09-15T11:38:27.560Z,1.50
2018-09-15T11:41:00.000Z,1.77
2018-09-15T11:43:32.590Z,1.50
2018-09-15T11:46:05.062Z,1.63
2018-09-15T11:48:37.510Z,1.53
2018-09-15T11:51:09.934Z,1.70
2018-09-15T11:53:42.419Z,1.80
2018-09-15T11:56:14.843Z,1.70
2018-09-15T11:58:47.269Z,1.47
2018-09-15T12:01:19.744Z,1.30
2018-09-15T12:03:52.571Z,1.70
2018-09-15T12:06:25.512Z,1.47
2018-09-15T12:08:58.088Z,1.60
2018-09-15T12:11:30.539Z,1.73
2018-09-15T12:14:03.077Z,2.07
2018-09-15T12:16:35.506Z,1.90
2018-09-15T12:19:08.214Z,1.40
2018-09-15T12:21:40.792Z,1.60
2018-09-15T12:24:13.336Z,1.70
2018-09-15T12:26:45.815Z,1.60
2018-09-15T12:29:18.331Z,1.60
2018-09-15T12:31:54.363Z,1.47
2018-09-15T12:34:28.006Z,1.83
2018-09-15T12:37:00.684Z,1.47
2018-09-15T12:39:34.891Z,1.80
2018-09-15T12:44:48.190Z,1.37
2018-09-15T12:47:20.594Z,1.57
2018-09-15T12:49:53.102Z,1.30
2018-09-15T12:52:25.646Z,1.20
2018-09-15T12:54:57.982Z,1.20
2018-09-15T12:57:30.441Z,1.60
2018-09-15T13:00:03.323Z,2.43
2018-09-15T13:02:35.841Z,1.53
2018-09-15T13:05:08.346Z,1.73
2018-09-15T13:07:40.858Z,1.30
2018-09-15T13:10:13.327Z,1.37
2018-09-15T13:12:45.703Z,1.70
2018-09-15T13:15:18.226Z,1.63
2018-09-15T13:17:50.705Z,1.57
2018-09-15T13:20:23.196Z,1.30
2018-09-15T13:22:55.886Z,1.40
2018-09-15T13:25:28.833Z,1.60
2018-09-15T13:28:01.229Z,1.70
2018-09-15T13:30:33.659Z,1.30
2018-09-15T13:33:06.057Z,1.60
2018-09-15T13:35:38.540Z,1.60
2018-09-15T13:38:11.045Z,1.30
2018-09-15T13:40:43.784Z,1.40
2018-09-15T13:43:16.246Z,1.40
2018-09-15T13:45:48.849Z,1.43
2018-09-15T13:48:21.227Z,1.60
2018-09-15T13:50:53.718Z,1.30
2018-09-15T13:53:26.255Z,1.77
2018-09-15T13:55:58.775Z,1.50
2018-09-15T13:58:31.171Z,1.50
2018-09-15T14:01:03.684Z,1.60
2018-09-15T14:03:36.115Z,1.87
2018-09-15T14:06:08.610Z,1.20
2018-09-15T14:08:41.181Z,1.40
2018-09-15T14:11:13.816Z,1.60
2018-09-15T14:13:47.802Z,1.50
2018-09-15T14:16:20.621Z,1.50
2018-09-15T14:18:53.368Z,1.80
2018-09-15T14:21:25.980Z,1.90
2018-09-15T14:23:58.510Z,1.87
2018-09-15T14:26:32.278Z,1.70
2018-09-15T14:29:05.013Z,1.57
2018-09-15T14:31:37.537Z,1.30
2018-09-15T14:34:10.152Z,1.80
2018-09-15T14:36:44.729Z,1.57
2018-09-15T14:39:17.431Z,1.90
2018-09-15T14:41:49.968Z,1.50
2018-09-15T14:44:22.834Z,2.57
2018-09-15T14:46:57.881Z,2.13
2018-09-15T14:49:30.582Z,1.80
2018-09-15T14:52:03.043Z,1.70
2018-09-15T14:54:36.698Z,1.83
2018-09-15T14:57:09.997Z,1.60
2018-09-15T14:59:42.525Z,2.03
2018-09-15T15:02:15.739Z,1.87
2018-09-15T15:04:49.499Z,1.93
2018-09-15T15:07:22.124Z,1.87
2018-09-15T15:09:54.802Z,1.83
2018-09-15T15:12:27.220Z,1.60
2018-09-15T15:15:00.394Z,1.77
2018-09-15T15:17:34.248Z,1.80
2018-09-15T15:20:07.068Z,2.00
2018-09-15T15:22:40.329Z,1.60
2018-09-15T15:25:15.981Z,1.70
2018-09-15T15:27:48.919Z,1.43
2018-09-15T15:30:22.314Z,1.63
2018-09-15T15:32:55.174Z,1.50
2018-09-15T15:35:27.607Z,1.83
2018-09-15T15:38:01.475Z,1.90
2018-09-15T15:40:34.163Z,1.70
2018-09-15T15:43:06.914Z,1.77
2018-09-15T15:45:39.436Z,1.77
2018-09-15T15:48:13.298Z,1.80
2018-09-15T15:50:46.946Z,1.80
2018-09-15T15:53:19.517Z,1.80
2018-09-15T15:55:52.308Z,1.53
2018-09-15T15:58:25.987Z,1.90
2018-09-15T16:01:01.915Z,1.77
2018-09-15T16:03:34.529Z,2.30
2018-09-15T16:06:07.735Z,2.20
2018-09-15T16:08:41.924Z,1.97
2018-09-15T16:11:15.228Z,1.83
2018-09-15T16:13:48.569Z,2.03
2018-09-15T16:16:21.463Z,2.40
2018-09-15T16:18:54.289Z,2.13
2018-09-15T16:21:27.312Z,2.03
2018-09-15T16:23:59.916Z,2.17
2018-09-15T16:26:32.617Z,2.27
2018-09-15T16:29:05.155Z,1.87
2018-09-15T16:31:37.764Z,3.90
2018-09-15T16:34:10.305Z,7.27
2018-09-15T16:36:43.041Z,3.30
2018-09-15T16:39:15.550Z,2.30
2018-09-15T16:41:48.067Z,2.57
2018-09-15T16:44:20.458Z,2.10
2018-09-15T16:46:53.265Z,1.93
2018-09-15T16:49:26.977Z,2.37
2018-09-15T16:51:59.988Z,1.70
2018-09-15T16:54:32.865Z,1.50
2018-09-15T16:57:05.612Z,1.70
2018-09-15T16:59:38.419Z,2.00
2018-09-15T17:02:11.059Z,2.20
2018-09-15T17:04:43.574Z,2.10
2018-09-15T17:07:16.535Z,2.43
2018-09-15T17:09:49.170Z,1.90
2018-09-15T17:12:21.857Z,2.13
2018-09-15T17:14:54.479Z,2.20
2018-09-15T17:17:27.796Z,2.10
2018-09-15T17:20:01.567Z,1.90
2018-09-15T17:22:35.595Z,2.40
2018-09-15T17:25:08.043Z,1.80
2018-09-15T17:27:40.521Z,2.00
2018-09-15T17:30:13.542Z,1.93
2018-09-15T17:32:46.423Z,1.77
2018-09-15T17:35:19.284Z,1.77
2018-09-15T17:37:52.129Z,2.00
2018-09-15T17:40:24.626Z,2.00
2018-09-15T17:42:57.303Z,2.00
2018-09-15T17:45:30.259Z,1.73
2018-09-15T17:48:02.830Z,1.80
2018-09-15T17:50:35.525Z,2.20
2018-09-15T17:53:08.220Z,2.33
2018-09-15T17:55:41.040Z,2.10
2018-09-15T17:58:13.854Z,2.40
2018-09-15T18:00:46.733Z,2.23
2018-09-15T18:03:19.853Z,2.87
2018-09-15T18:05:52.528Z,2.40
2018-09-15T18:08:25.067Z,2.30
2018-09-15T18:10:57.719Z,2.37
2018-09-15T18:13:30.333Z,2.67
2018-09-15T18:16:02.807Z,2.00
2018-09-15T18:18:35.346Z,2.50
2018-09-15T18:21:08.095Z,2.43
2018-09-15T18:23:41.905Z,2.70
2018-09-15T18:26:14.388Z,2.30
2018-09-15T18:28:47.392Z,2.20
2018-09-15T18:31:20.510Z,1.70
2018-09-15T18:33:53.177Z,1.87
2018-09-15T18:36:25.749Z,2.00
2018-09-15T18:38:58.478Z,2.00
2018-09-15T18:41:31.468Z,2.10
2018-09-15T18:44:04.123Z,1.40
2018-09-15T18:47:39.880Z,1.90
2018-09-15T18:50:12.362Z,1.40
2018-09-15T18:52:45.059Z,1.97
2018-09-15T18:55:17.815Z,1.90
2018-09-15T18:57:50.248Z,2.03
2018-09-15T19:00:22.811Z,1.80
2018-09-15T19:02:55.162Z,1.70
2018-09-15T19:05:27.925Z,2.07
2018-09-15T19:08:00.570Z,2.00
2018-09-15T19:10:33.104Z,1.90
2018-09-15T19:13:05.696Z,1.80
2018-09-15T19:15:38.421Z,1.67
2018-09-15T19:18:10.858Z,1.60
2018-09-15T19:20:43.459Z,1.63
2018-09-15T19:23:15.897Z,1.90
2018-09-15T19:25:48.352Z,2.50
2018-09-15T19:28:20.771Z,2.50
2018-09-15T19:30:53.559Z,2.90
2018-09-15T19:33:26.411Z,2.67
2018-09-15T19:35:58.923Z,2.60
2018-09-15T19:38:31.539Z,2.80
2018-09-15T19:41:04.004Z,2.63
2018-09-15T19:43:36.697Z,2.40
2018-09-15T19:46:09.231Z,3.30
2018-09-15T19:48:41.863Z,3.37
2018-09-15T19:51:14.264Z,2.40
2018-09-15T19:53:46.946Z,2.80
2018-09-15T19:56:19.337Z,2.53
2018-09-15T19:58:52.147Z,3.20
2018-09-15T20:01:24.561Z,3.17
2018-09-15T20:03:57.516Z,2.70
2018-09-15T20:06:30.443Z,3.27
2018-09-15T20:09:03.183Z,2.70
2018-09-15T20:11:35.647Z,2.97
2018-09-15T20:14:09.074Z,3.27
2018-09-15T20:16:40.516Z,11.03
2018-09-15T20:19:12.120Z,14.30
2018-09-15T20:21:43.557Z,16.57
2018-09-15T20:24:16.019Z,16.77
2018-09-15T20:26:48.562Z,17.80
2018-09-15T20:29:20.999Z,16.83
2018-09-15T20:31:53.495Z,15.37
2018-09-15T20:34:26.220Z,17.53
2018-09-15T20:36:59.352Z,19.00
2018-09-15T20:39:32.214Z,15.97
2018-09-15T20:42:04.912Z,17.70
2018-09-15T20:44:37.357Z,16.33
2018-09-15T20:47:14.266Z,14.37
2018-09-15T20:49:47.399Z,14.70
2018-09-15T20:52:23.385Z,14.43
2018-09-15T20:54:56.024Z,13.00
2018-09-15T20:57:28.586Z,13.23
2018-09-15T21:00:01.121Z,12.10
2018-09-15T21:02:33.597Z,10.77
2018-09-15T21:05:06.578Z,10.90
2018-09-15T21:07:39.142Z,9.93
2018-09-15T21:10:11.929Z,10.17
2018-09-15T21:12:45.133Z,8.40
2018-09-15T21:15:17.972Z,7.47
2018-09-15T21:17:50.416Z,6.50
2018-09-15T21:20:22.936Z,6.73
2018-09-15T21:22:55.351Z,7.20
2018-09-15T21:25:28.194Z,6.23
2018-09-15T21:28:01.535Z,6.37
2018-09-15T21:30:35.296Z,6.93
2018-09-15T21:33:07.958Z,7.00
2018-09-15T21:35:40.927Z,6.00
2018-09-15T21:38:13.575Z,6.00
2018-09-15T21:40:46.030Z,5.43
2018-09-15T21:43:18.415Z,5.60
2018-09-15T21:45:50.826Z,4.60
2018-09-15T21:48:23.284Z,4.17
2018-09-15T21:50:55.813Z,4.43
2018-09-15T21:53:28.502Z,4.83
2018-09-15T21:56:01.171Z,5.67
2018-09-15T21:58:33.894Z,5.90
2018-09-15T22:01:06.673Z,5.50
2018-09-15T22:03:44.743Z,8.17
2018-09-15T22:06:18.421Z,8.13
2018-09-15T22:08:50.951Z,5.30
2018-09-15T22:11:23.522Z,4.93
2018-09-15T22:13:55.924Z,4.70
2018-09-15T22:16:28.350Z,5.47
2018-09-15T22:19:00.803Z,5.17
2018-09-15T22:21:33.382Z,5.17
2018-09-15T22:24:06.500Z,5.23
2018-09-15T22:26:38.957Z,5.40
2018-09-15T22:29:11.365Z,4.83
2018-09-15T22:31:43.793Z,5.50
2018-09-15T22:34:16.289Z,5.10
2018-09-15T22:36:48.800Z,5.57
2018-09-15T22:39:21.413Z,4.97
2018-09-15T22:41:54.259Z,5.10
2018-09-15T22:44:26.838Z,5.10
2018-09-15T22:46:59.365Z,3.70
2018-09-15T22:49:32.383Z,4.53
2018-09-15T22:52:04.882Z,4.37
2018-09-15T22:54:37.413Z,4.83
2018-09-15T22:57:10.182Z,4.47
2018-09-15T22:59:42.672Z,4.60
2018-09-15T23:02:15.135Z,5.00
2018-09-15T23:04:47.688Z,4.23
2018-09-15T23:07:20.293Z,4.63
2018-09-15T23:09:52.732Z,4.63
2018-09-15T23:12:25.137Z,4.70
2018-09-15T23:14:57.573Z,4.77
2018-09-15T23:17:30.238Z,4.80
2018-09-15T23:20:03.253Z,5.10
2018-09-15T23:22:36.950Z,5.10
2018-09-15T23:25:10.711Z,4.77
2018-09-15T23:27:43.937Z,4.73
2018-09-15T23:30:16.510Z,4.40
2018-09-15T23:32:49.126Z,5.20
2018-09-15T23:35:21.517Z,4.67
2018-09-15T23:37:54.128Z,5.00
2018-09-15T23:40:26.900Z,4.47
2018-09-15T23:42:59.453Z,4.50
2018-09-15T23:45:31.951Z,4.60
2018-09-15T23:48:04.510Z,4.47
2018-09-15T23:50:36.977Z,4.60
2018-09-15T23:53:09.461Z,4.73
2018-09-15T23:55:41.988Z,5.23
2018-09-15T23:58:14.470Z,4.37
